Skip Navigation Links weather.gov 
NOAA logo-Select to go to the NOAA homepage NDBC Title GraphicClick to go to NDBC home page   Select to go to the NWS homepage
Home About Us Contact Us
 
 
    
    Station List

 Data Access
    Mobile Access
    Classic Maps
         Recent
         DART®
    Obs Search
    Ship Obs Report
    BuoyCAMs
    TAO
    DODS
    OceanSITES
    HF Radar
    OSMC
    Dial-A-Buoy
    RSS Feeds Image indicating link to RSS feed access page
    Web Widget
    Email Access
    Web Data Guide
    Maintenance Schedule
    Station Status Report

 Program Info
    TAO
    DART®
    IOOS®

 Publications
    NDBC PEA
    NDBC FONSI
    NDBC DQC Handbook

 FAQ
 Visitor Information
 
USA.gov is the U.S. government's official web portal to all federal, state and local government web resources and services.

Station MHRN6 - 8519532 - Mariners Harbor, NY Image indicating link to RSS feed of recent meteorological observations for station MHRN6

Owned and maintained by NOAA's National Ocean Service
C-MAN Station
40.641 N 74.162 W (40°38'26" N 74°9'44" W)

Site elevation: 2.6 m above mean sea level
Anemometer height: 46 m above site elevation

Latest NWS Marine Forecast

Search And Rescue (SAR) Data

Meteorological Observations from Nearby Stations and Ships Image indicating link to RSS feed of recent meteorological observations near station MHRN6

Regional HF Radar Surface Current Observations

Large icon indicates selected station.
yellow diamond Stations with recent data
red diamond Stations with no data in last 8 hours
     (24 hours for tsunami stations)


Conditions at MHRN6 as of
(9:18 am EST)
1418 GMT on 12/16/2018:
     

Click on the graph icon in the table below to see a time series plot of the last five days of that observation.

5-day plot - Wind Direction Wind Direction (WDIR): NE ( 40 deg true )
5-day plot - Wind Speed Wind Speed (WSPD): 17 kts
5-day plot - Wind Gust Wind Gust (GST): 23 kts
5-day plot - Wind Speed at 10 Meters Wind Speed at 10 meters (WSPD10M): 14 kts
5-day plot - Wind Speed at 10 Meters Wind Speed at 20 meters (WSPD20M): 16 kts
5-day plot - Wind Speed, Wind Gust and Atmospheric Pressure Combined plot of Wind Speed, Gust, and Air Pressure
NOS Water Level Observation Network Water Level
Previous observations
5-day plot - Wind Direction 5-day plot - Wind Speed 5-day plot - Wind Gust 5-day plot - Wave Height 5-day plot - Dominant Wave Period 5-day plot - Average Period 5-day plot - Mean Wave Direction 5-day plot - Atmospheric Pressure 5-day plot - Pressure Tendency 5-day plot - Air Temperature 5-day plot - Water Temperature 5-day plot - Dew Point 5-day plot - Salinity 5-day plot - Visibility 5-day plot - Tide (above MLLW)
MM DD TIME
(EST)
WDIR WSPD
kts
GST
kts
WVHT
ft
DPD
sec
APD
sec
MWD PRES
in
PTDY
in
ATMP
°F
WTMP
°F
DEWP
°F
SAL
psu
VIS
nmi
TIDE
ft
1216 9:12 am NE 16 22------------
1216 9:06 am NE 17 24------------
1216 9:00 am NE 19 23------------
1216 8:54 am NE 17 22------------
1216 8:48 am NE 18 22------------
1216 8:42 am NE 18 25------------
1216 8:36 am NE 18 25------------
1216 8:30 am NE 18 21------------
1216 8:24 am NE 19 23------------
1216 8:18 am NE 20 23------------
1216 8:12 am NE 17 23------------
1216 8:06 am NE 18 25------------
1216 8:00 am NE 19 24------------
1216 7:54 am NE 19 23------------
1216 7:48 am NE 17 22------------
1216 7:42 am NE 19 24------------
1216 7:36 am NE 17 21------------
1216 7:30 am NE 19 25------------
1216 7:24 am NE 19 23------------
1216 7:18 am NE 19 23------------
1216 7:12 am NE 18 24------------
1216 7:06 am NE 17 20------------
1216 7:00 am NE 15 20------------
1216 6:54 am NE 16 23------------
1216 6:48 am NE 18 21------------
1216 6:42 amENE 17 22------------
1216 6:36 am NE 18 21------------
1216 6:30 am NE 15 22------------
1216 6:24 amNNE 16 21------------
1216 6:18 am NE 13 22------------
1216 6:12 amNNE 16 24------------
1216 6:06 am NE 20 26------------
1216 6:00 am NE 20 30------------
1216 5:54 am NE 23 29------------
1216 5:48 am NE 22 32------------
1216 5:42 am NE 24 31------------
1216 5:36 am NE 27 32------------
1216 5:30 am NE 25 34------------
1216 5:24 amENE 20 24------------
1216 5:18 am NE 21 26------------
1216 5:12 am NE 21 25------------
1216 5:06 am NE 19 24------------
1216 5:00 am NE 21 26------------
1216 4:54 am NE 18 23------------
1216 4:48 amENE 16 20------------
1216 4:42 amENE 14 19------------
1216 4:36 amENE 18 22------------
1216 4:30 amENE 18 22------------
1216 4:24 amENE 16 20------------
1216 4:18 amENE 13 17------------
1216 4:12 amENE 14 21------------
1216 4:06 am NE 16 21------------
1216 4:00 am NE 18 23------------
1216 3:54 am NE 20 25------------
1216 3:48 am NE 23 29------------
1216 3:42 am NE 19 28------------
1216 3:36 am NE 20 25------------
1216 3:30 am NE 24 28------------
1216 3:24 am NE 17 26------------
1216 3:18 am NE 24 29------------
1216 3:12 am NE 26 33------------
1216 3:06 am NE 25 30------------
1216 3:00 am NE 27 30------------
1216 2:54 am NE 20 29------------
1216 2:48 am NE 22 26------------
1216 2:42 am NE 22 26------------
1216 2:36 am NE 19 27------------
1216 2:30 am NE 21 28------------
1216 2:24 am NE 19 23------------
1216 2:18 am NE 17 23------------
1216 2:12 am NE 17 23------------
1216 2:06 am NE 17 24------------
1216 2:00 am NE 21 24------------
1216 1:54 am NE 17 22------------
1216 1:48 am NE 15 22------------
1216 1:42 am NE 17 25------------
1216 1:36 am NE 21 27------------
1216 1:30 am NE 24 27------------
1216 1:24 am NE 22 28------------
1216 1:18 am NE 27 32------------
1216 1:12 am NE 26 30------------
1216 1:06 am NE 21 29------------
1216 1:00 am NE 19 26------------
121612:54 am NE 20 26------------
121612:48 am NE 21 26------------
121612:42 am NE 21 26------------
121612:36 am NE 17 23------------
121612:30 am NE 17 21------------
121612:24 am NE 17 23------------
121612:18 am NE 19 25------------
121612:12 am NE 23 27------------
121612:06 am NE 20 24------------
121612:00 am NE 23 27------------
121511:54 pm NE 20 25------------
121511:48 pm NE 15 22------------
121511:42 pm NE 18 21------------
121511:36 pm NE 16 20------------
121511:30 pm NE 17 21------------
121511:24 pm NE 18 22------------
121511:18 pm NE 16 22------------
121511:12 pmENE 16 22------------
121511:06 pm NE 17 23------------
121511:00 pm NE 19 23------------
121510:54 pmENE 17 20------------
121510:48 pmENE 20 25------------
121510:42 pmENE 19 22------------
121510:36 pmENE 17 22------------
121510:30 pmENE 15 20------------
121510:24 pm NE 15 19------------
121510:18 pmENE 16 21------------
121510:12 pm NE 18 24------------
121510:06 pm NE 13 20------------
121510:00 pm NE 17 20------------
1215 9:54 pmENE 17 22------------
1215 9:48 pm NE 15 23------------
1215 9:42 pmENE 17 21------------
1215 9:36 pmENE 14 17------------
1215 9:30 pmENE 12 16------------
1215 9:24 pm NE 14 17------------
1215 9:18 pm NE 11 16------------
1215 9:12 pmNNE 13 17------------
1215 9:06 pm NE 13 18------------
1215 9:00 pm NE 13 16------------
1215 8:54 pmNNE 14 15------------
1215 8:48 pm NE 12 14------------
1215 8:42 pmNNE 12 14------------
1215 8:36 pmNNE 12 13------------
1215 8:30 pm NE 12 16------------
1215 8:24 pm NE 12 15------------
1215 8:18 pm NE 13 18------------
1215 8:12 pm NE 14 20------------
1215 8:06 pm NE 17 21------------
1215 8:00 pm NE 16 18------------
1215 7:54 pmNNE 14 16------------
1215 7:48 pmNNE 12 14------------
1215 7:42 pmNNE 5 10------------
1215 7:36 pmNNE 8 12------------
1215 7:30 pmNNE 11 13------------
1215 7:24 pmNNE 13 14------------
1215 7:18 pmNNE 12 14------------
1215 7:12 pmNNE 12 13------------
1215 7:06 pmNNE 13 14------------
1215 7:00 pmNNE 13 15------------
1215 6:54 pmNNE 13 14------------
1215 6:48 pmNNE 11 13------------
1215 6:42 pmNNE 10 12------------
1215 6:36 pmNNE 10 12------------
1215 6:30 pmNNE 11 12------------
1215 6:24 pmNNE 10 12------------
1215 6:18 pmNNE 11 14------------
1215 6:12 pmNNE 12 15------------
1215 6:06 pm N 12 14------------
1215 6:00 pmNNE 10 13------------
1215 5:54 pmNNE 10 12------------
1215 5:48 pmNNE 13 16------------
1215 5:42 pm NE 14 15------------
1215 5:36 pmNNE 12 13------------
1215 5:30 pmNNE 10 12------------
1215 5:24 pmNNE 11 14------------
1215 5:18 pm N 12 14------------
1215 5:12 pm N 11 12------------
1215 5:06 pmNNE 10 11------------
1215 5:00 pmNNE 8 10------------
1215 4:54 pmNNE 7 9------------
1215 4:48 pmNNE 7 10------------
1215 4:42 pmNNE 9 13------------
1215 4:36 pmNNE 11 14------------
1215 4:30 pmNNE 11 16------------
1215 4:24 pmNNE 9 14------------
1215 4:18 pmNNE 11 19------------
1215 4:12 pmNNE 17 20------------
1215 4:06 pmNNE 14 17------------
1215 4:00 pmNNE 15 20------------
1215 3:54 pmNNE 16 19------------
1215 3:48 pmNNE 16 19------------
1215 3:42 pmNNE 15 17------------
1215 3:36 pmNNE 13 15------------
1215 3:30 pm N 13 17------------
1215 3:24 pm N 13 15------------
1215 3:18 pmNNE 12 15------------
1215 3:12 pmNNE 13 16------------
1215 3:06 pm N 11 14------------
1215 3:00 pmNNE 11 14------------
1215 2:54 pmNNE 11 15------------
1215 2:48 pmNNE 12 15------------
1215 2:42 pm N 13 17------------
1215 2:36 pm N 12 14------------
1215 2:30 pmNNE 11 12------------
1215 2:24 pmNNE 11 13------------
1215 2:18 pm N 10 12------------
1215 2:12 pm N 10 12------------
1215 2:06 pmNNE 11 12------------
1215 2:00 pmNNE 9 10------------
1215 1:54 pmNNE 8 11------------
1215 1:48 pmNNE 9 10------------
1215 1:42 pmNNE 8 10------------
1215 1:36 pm N 8 9------------
1215 1:30 pm N 8 9------------
1215 1:24 pmNNE 8 10------------
1215 1:18 pmNNE 8 9------------
1215 1:12 pmNNE 8 10------------
1215 1:06 pmNNE 7 10------------
1215 1:00 pm N 8 9------------
121512:54 pm N 7 9------------
121512:48 pmNNE 7 10------------
121512:42 pm N 8 9------------
121512:36 pm N 8 8------------
121512:30 pm N 8 9------------
121512:24 pm N 6 7------------
121512:18 pm N 7 9------------
121512:12 pm N 7 8------------
121512:06 pmNNE 8 8------------
121512:00 pmNNE 8 10------------
121511:54 amNNE 8 11------------
121511:48 amNNE 10 12------------
121511:42 amNNE 10 12------------
121511:36 amNNE 8 11------------
121511:30 am N 8 11------------
121511:24 am N 10 11------------
121511:18 am N 8 10------------
121511:12 amNNE 9 10------------
121511:06 am N 9 10------------
121511:00 am N 8 8------------
121510:54 amNNE 8 9------------
121510:48 am NE 7 9------------
121510:42 am NE 9 10------------
121510:36 amNNE 10 11------------
121510:30 am NE 10 13------------
121510:24 amNNE 10 12------------
121510:18 amNNE 10 14------------
121510:12 amNNE 10 15------------
121510:06 am N 14 18------------
121510:00 am N 15 18------------
1215 9:54 am N 12 13------------
1215 9:48 amNNE 10 11------------
1215 9:42 am NE 9 9------------
1215 9:36 amNNE 7 8------------
1215 9:30 amNNE 6 9------------
1215 9:24 am N 10 11------------
1215 9:18 am N 9 11------------
1215 9:12 am N 9 11------------
1215 9:06 am N 9 10------------
1215 9:00 amNNE 9 9------------
1215 8:54 am NE 7 9------------

Description of Measurements

Links which are specific to this station are listed below:

Real Time Data in tabular form for the last forty-five days.

Historical Data & Climatic Summaries for quality controlled data for the current month, previous months, and previous years.